createdAt,value
2016-06-29T00:00:23.327Z,1001.18
2016-06-29T00:01:23.363Z,1001.16
2016-06-29T00:02:23.385Z,1001.13
2016-06-29T00:03:23.415Z,1001.12
2016-06-29T00:04:23.436Z,1001.09
2016-06-29T00:05:23.469Z,1001.11
2016-06-29T00:06:23.496Z,1001.07
2016-06-29T00:07:23.516Z,1001.09
2016-06-29T00:08:23.542Z,1001.1
2016-06-29T00:09:23.569Z,1001.1
2016-06-29T00:10:23.601Z,1001.13
2016-06-29T00:11:23.624Z,1001.08
2016-06-29T00:12:23.651Z,1001.03
2016-06-29T00:13:23.679Z,1001.05
2016-06-29T00:14:23.708Z,1001.02
2016-06-29T00:15:23.734Z,1000.99
2016-06-29T00:16:23.762Z,1000.94
2016-06-29T00:17:23.786Z,1000.93
2016-06-29T00:18:23.807Z,1000.92
2016-06-29T00:19:30.103Z,1000.91
2016-06-29T00:20:23.869Z,1000.92
2016-06-29T00:21:23.893Z,1000.93
2016-06-29T00:22:23.916Z,1000.91
2016-06-29T00:23:23.948Z,1000.88
2016-06-29T00:24:23.979Z,1000.9
2016-06-29T00:25:23.999Z,1000.89
2016-06-29T00:26:24.032Z,1000.86
2016-06-29T00:27:24.051Z,1000.8
2016-06-29T00:28:24.078Z,1000.79
2016-06-29T00:29:24.109Z,1000.8
2016-06-29T00:30:24.130Z,1000.78
2016-06-29T00:31:24.160Z,1000.81
2016-06-29T00:32:24.187Z,1000.81
2016-06-29T00:33:24.227Z,1000.78
2016-06-29T00:34:24.245Z,1000.77
2016-06-29T00:35:24.262Z,1000.73
2016-06-29T00:36:24.290Z,1000.77
2016-06-29T00:37:24.320Z,1000.76
2016-06-29T00:38:24.345Z,1000.76
2016-06-29T00:39:24.572Z,1000.76
2016-06-29T00:40:24.406Z,1000.79
2016-06-29T00:41:24.423Z,1000.81
2016-06-29T00:42:24.459Z,1000.77
2016-06-29T00:43:24.474Z,1000.78
2016-06-29T00:44:24.503Z,1000.78
2016-06-29T00:45:24.538Z,1000.77
2016-06-29T00:46:24.556Z,1000.78
2016-06-29T00:47:24.582Z,1000.7
2016-06-29T00:48:24.607Z,1000.68
2016-06-29T00:49:24.635Z,1000.66
2016-06-29T00:50:24.660Z,1000.66
2016-06-29T00:51:24.691Z,1000.64
2016-06-29T00:52:24.715Z,1000.67
2016-06-29T00:53:24.743Z,1000.69
2016-06-29T00:54:24.768Z,1000.67
2016-06-29T00:55:24.793Z,1000.66
2016-06-29T00:56:24.819Z,1000.63
2016-06-29T00:57:24.847Z,1000.6
2016-06-29T00:58:24.871Z,1000.65
2016-06-29T00:59:24.901Z,1000.62
2016-06-29T01:00:24.925Z,1000.63
2016-06-29T01:01:24.955Z,1000.66
2016-06-29T01:02:24.986Z,1000.64
2016-06-29T01:03:25.013Z,1000.7
2016-06-29T01:04:25.035Z,1000.67
2016-06-29T01:05:25.059Z,1000.67
2016-06-29T01:06:25.084Z,1000.63
2016-06-29T01:07:25.111Z,1000.59
2016-06-29T01:08:25.140Z,1000.55
2016-06-29T01:09:25.162Z,1000.54
2016-06-29T01:10:25.190Z,1000.53
2016-06-29T01:11:25.215Z,1000.55
2016-06-29T01:12:25.247Z,1000.55
2016-06-29T01:13:25.270Z,1000.54
2016-06-29T01:14:25.299Z,1000.57
2016-06-29T01:15:25.322Z,1000.54
2016-06-29T01:16:25.348Z,1000.54
2016-06-29T01:17:25.376Z,1000.5
2016-06-29T01:18:25.402Z,1000.52
2016-06-29T01:19:25.427Z,1000.54
2016-06-29T01:20:25.453Z,1000.54
2016-06-29T01:21:25.480Z,1000.55
2016-06-29T01:22:25.532Z,1000.56
2016-06-29T01:23:25.535Z,1000.57
2016-06-29T01:24:25.561Z,1000.56
2016-06-29T01:25:25.584Z,1000.58
2016-06-29T01:26:25.607Z,1000.54
2016-06-29T01:27:25.649Z,1000.56
2016-06-29T01:28:25.663Z,1000.57
2016-06-29T01:29:25.691Z,1000.54
2016-06-29T01:30:25.714Z,1000.54
2016-06-29T01:31:25.736Z,1000.55
2016-06-29T01:32:25.764Z,1000.55
2016-06-29T01:33:25.800Z,1000.52
2016-06-29T01:34:25.821Z,1000.5
2016-06-29T01:35:25.858Z,1000.46
2016-06-29T01:36:25.872Z,1000.47
2016-06-29T01:37:25.899Z,1000.51
2016-06-29T01:38:25.929Z,1000.52
2016-06-29T01:39:25.951Z,1000.59
2016-06-29T01:40:25.983Z,1000.59
2016-06-29T01:41:26.013Z,1000.56
2016-06-29T01:42:26.034Z,1000.5
2016-06-29T01:43:26.062Z,1000.45
2016-06-29T01:44:26.087Z,1000.49
2016-06-29T01:45:26.108Z,1000.44
2016-06-29T01:46:26.134Z,1000.44
2016-06-29T01:47:26.164Z,1000.46
2016-06-29T01:48:26.192Z,1000.41
2016-06-29T01:49:26.213Z,1000.38
2016-06-29T01:50:26.241Z,1000.37
2016-06-29T01:51:26.265Z,1000.41
2016-06-29T01:52:26.291Z,1000.42
2016-06-29T01:53:26.343Z,1000.39
2016-06-29T01:54:26.342Z,1000.43
2016-06-29T01:55:26.374Z,1000.43
2016-06-29T01:56:26.396Z,1000.44
2016-06-29T01:57:26.432Z,1000.4
2016-06-29T01:58:26.447Z,1000.44
2016-06-29T01:59:26.478Z,1000.4
2016-06-29T02:00:26.511Z,1000.41
2016-06-29T02:01:26.526Z,1000.41
2016-06-29T02:02:26.564Z,1000.48
2016-06-29T02:03:26.582Z,1000.46
2016-06-29T02:04:26.607Z,1000.47
2016-06-29T02:05:26.631Z,1000.49
2016-06-29T02:06:26.658Z,1000.47
2016-06-29T02:07:26.682Z,1000.46
2016-06-29T02:08:26.711Z,1000.41
2016-06-29T02:09:26.735Z,1000.39
2016-06-29T02:10:26.767Z,1000.45
2016-06-29T02:11:26.799Z,1000.44
2016-06-29T02:12:26.818Z,1000.44
2016-06-29T02:13:26.842Z,1000.44
2016-06-29T02:14:26.867Z,1000.43
2016-06-29T02:15:26.895Z,1000.42
2016-06-29T02:16:26.915Z,1000.41
2016-06-29T02:17:26.947Z,1000.42
2016-06-29T02:18:26.974Z,1000.42
2016-06-29T02:19:26.994Z,1000.4
2016-06-29T02:20:27.027Z,1000.48
2016-06-29T02:21:27.051Z,1000.48
2016-06-29T02:22:27.073Z,1000.5
2016-06-29T02:23:27.103Z,1000.49
2016-06-29T02:24:27.129Z,1000.49
2016-06-29T02:25:27.158Z,1000.55
2016-06-29T02:26:27.182Z,1000.57
2016-06-29T02:27:27.208Z,1000.52
2016-06-29T02:28:27.235Z,1000.5
2016-06-29T02:29:27.267Z,1000.5
2016-06-29T02:30:27.288Z,1000.46
2016-06-29T02:31:27.317Z,1000.46
2016-06-29T02:32:27.336Z,1000.46
2016-06-29T02:33:27.382Z,1000.48
2016-06-29T02:34:27.393Z,1000.43
2016-06-29T02:35:27.614Z,1000.4
2016-06-29T02:36:27.441Z,1000.39
2016-06-29T02:37:27.468Z,1000.36
2016-06-29T02:38:27.500Z,1000.41
2016-06-29T02:39:27.524Z,1000.42
2016-06-29T02:40:27.546Z,1000.39
2016-06-29T02:41:27.571Z,1000.41
2016-06-29T02:42:27.599Z,1000.45
2016-06-29T02:43:27.626Z,1000.42
2016-06-29T02:44:27.647Z,1000.39
2016-06-29T02:45:27.682Z,1000.33
2016-06-29T02:46:27.701Z,1000.25
2016-06-29T02:47:27.729Z,1000.27
2016-06-29T02:48:27.752Z,1000.2
2016-06-29T02:49:27.775Z,1000.19
2016-06-29T02:50:27.812Z,1000.16
2016-06-29T02:51:27.832Z,1000.23
2016-06-29T02:52:27.855Z,1000.18
2016-06-29T02:53:27.883Z,1000.13
2016-06-29T02:54:27.910Z,1000.08
2016-06-29T02:55:27.946Z,1000.02
2016-06-29T02:56:27.963Z,1000.01
2016-06-29T02:57:27.992Z,999.99
2016-06-29T02:58:28.013Z,999.94
2016-06-29T02:59:28.039Z,999.92
2016-06-29T03:00:28.062Z,999.86
2016-06-29T03:01:28.087Z,999.85
2016-06-29T03:02:28.124Z,999.87
2016-06-29T03:03:28.142Z,999.93
2016-06-29T03:04:28.166Z,1000.04
2016-06-29T03:05:28.194Z,1000.05
2016-06-29T03:06:28.218Z,1000.08
2016-06-29T03:07:28.252Z,1000.06
2016-06-29T03:08:28.271Z,1000.08
2016-06-29T03:09:28.295Z,1000.08
2016-06-29T03:10:28.321Z,1000.09
2016-06-29T03:11:28.347Z,1000.07
2016-06-29T03:12:28.377Z,1000.07
2016-06-29T03:13:28.393Z,1000.15
2016-06-29T03:14:28.423Z,1000.16
2016-06-29T03:15:28.450Z,1000.13
2016-06-29T03:16:28.471Z,1000.09
2016-06-29T03:17:28.498Z,1000.08
2016-06-29T03:18:28.523Z,1000.08
2016-06-29T03:19:28.548Z,1000.12
2016-06-29T03:20:28.574Z,1000.16
2016-06-29T03:21:28.600Z,1000.15
2016-06-29T03:22:28.625Z,1000.15
2016-06-29T03:23:28.669Z,1000.12
2016-06-29T03:24:28.675Z,1000.14
2016-06-29T03:25:28.700Z,1000.14
2016-06-29T03:26:28.722Z,1000.13
2016-06-29T03:27:28.755Z,1000.16
2016-06-29T03:28:28.771Z,1000.1
2016-06-29T03:29:28.804Z,1000.07
2016-06-29T03:30:28.840Z,1000.06
2016-06-29T03:31:28.852Z,1000.01
2016-06-29T03:32:28.897Z,999.96
2016-06-29T03:33:28.903Z,999.96
2016-06-29T03:34:28.940Z,999.96
2016-06-29T03:35:29.013Z,999.9
2016-06-29T03:36:28.983Z,999.88
2016-06-29T03:37:29.007Z,999.82
2016-06-29T03:38:29.032Z,999.85
2016-06-29T03:39:29.055Z,999.81
2016-06-29T03:40:29.085Z,999.77
2016-06-29T03:41:29.102Z,999.8
2016-06-29T03:42:29.133Z,999.75
2016-06-29T03:43:29.165Z,999.78
2016-06-29T03:44:29.186Z,999.77
2016-06-29T03:45:29.205Z,999.81
2016-06-29T03:46:29.240Z,999.77
2016-06-29T03:47:29.265Z,999.75
2016-06-29T03:48:29.282Z,999.79
2016-06-29T03:49:29.314Z,999.82
2016-06-29T03:50:29.341Z,999.81
2016-06-29T03:51:29.359Z,999.85
2016-06-29T03:52:29.389Z,999.88
2016-06-29T03:53:29.417Z,999.92
2016-06-29T03:54:29.434Z,999.94
2016-06-29T03:55:29.461Z,999.96
2016-06-29T03:56:29.486Z,999.99
2016-06-29T03:57:29.509Z,999.99
2016-06-29T03:58:29.534Z,1000.02
2016-06-29T03:59:29.567Z,1000.01
2016-06-29T04:00:29.585Z,1000.03
2016-06-29T04:01:29.609Z,1000.03
2016-06-29T04:02:29.638Z,1000.01
2016-06-29T04:03:29.667Z,1000.03
2016-06-29T04:04:29.691Z,1000
2016-06-29T04:05:29.720Z,1000.01
2016-06-29T04:06:29.738Z,999.99
2016-06-29T04:07:29.763Z,999.98
2016-06-29T04:08:29.800Z,999.95
2016-06-29T04:09:29.821Z,999.94
2016-06-29T04:10:29.839Z,999.93
2016-06-29T04:11:29.860Z,999.93
2016-06-29T04:12:29.891Z,999.9
2016-06-29T04:13:29.907Z,999.94
2016-06-29T04:14:29.941Z,999.95
2016-06-29T04:15:29.963Z,999.97
2016-06-29T04:16:29.991Z,999.96
2016-06-29T04:17:30.013Z,999.93
2016-06-29T04:18:30.039Z,999.93
2016-06-29T04:19:30.063Z,999.93
2016-06-29T04:20:30.088Z,999.97
2016-06-29T04:21:30.124Z,999.97
2016-06-29T04:22:30.142Z,999.96
2016-06-29T04:23:30.159Z,999.95
2016-06-29T04:24:30.206Z,999.97
2016-06-29T04:25:30.214Z,999.99
2016-06-29T04:26:30.236Z,999.99
2016-06-29T04:27:30.288Z,999.97
2016-06-29T04:28:30.298Z,999.95
2016-06-29T04:29:30.313Z,999.96
2016-06-29T04:30:30.349Z,999.92
2016-06-29T04:31:30.361Z,999.92
2016-06-29T04:32:30.387Z,999.93
2016-06-29T04:33:30.417Z,999.97
2016-06-29T04:34:30.440Z,999.94
2016-06-29T04:35:30.463Z,999.94
2016-06-29T04:36:30.488Z,999.95
2016-06-29T04:37:30.518Z,999.91
2016-06-29T04:38:30.542Z,999.89
2016-06-29T04:39:30.574Z,999.89
2016-06-29T04:40:30.596Z,999.9
2016-06-29T04:41:30.612Z,999.89
2016-06-29T04:42:30.639Z,999.84
2016-06-29T04:43:30.661Z,999.85
2016-06-29T04:44:30.689Z,999.85
2016-06-29T04:45:30.714Z,999.86
2016-06-29T04:46:30.740Z,999.85
2016-06-29T04:47:30.772Z,999.86
2016-06-29T04:48:30.792Z,999.86
2016-06-29T04:49:30.819Z,999.82
2016-06-29T04:50:30.838Z,999.84
2016-06-29T04:51:30.865Z,999.85
2016-06-29T04:52:30.889Z,999.77
2016-06-29T04:53:30.911Z,999.81
2016-06-29T04:54:30.939Z,999.82
2016-06-29T04:55:30.964Z,999.83
2016-06-29T04:56:30.990Z,999.82
2016-06-29T04:57:31.015Z,999.84
2016-06-29T04:58:31.039Z,999.84
2016-06-29T04:59:31.063Z,999.82
2016-06-29T05:00:31.093Z,999.82
2016-06-29T05:01:31.114Z,999.8
2016-06-29T05:02:31.137Z,999.79
2016-06-29T05:03:31.162Z,999.84
2016-06-29T05:04:31.195Z,999.87
2016-06-29T05:05:31.218Z,999.86
2016-06-29T05:06:31.240Z,999.85
2016-06-29T05:07:31.267Z,999.87
2016-06-29T05:08:31.288Z,999.83
2016-06-29T05:09:31.330Z,999.83
2016-06-29T05:10:31.346Z,999.79
2016-06-29T05:11:31.365Z,999.79
2016-06-29T05:12:31.393Z,999.79
2016-06-29T05:13:31.417Z,999.8
2016-06-29T05:14:31.438Z,999.8
2016-06-29T05:15:31.467Z,999.82
2016-06-29T05:16:31.489Z,999.78
2016-06-29T05:17:31.522Z,999.81
2016-06-29T05:18:31.544Z,999.8
2016-06-29T05:19:31.568Z,999.82
2016-06-29T05:20:31.593Z,999.8
2016-06-29T05:21:31.614Z,999.84
2016-06-29T05:22:31.640Z,999.85
2016-06-29T05:23:31.668Z,999.89
2016-06-29T05:24:31.695Z,999.93
2016-06-29T05:25:31.731Z,999.93
2016-06-29T05:26:31.743Z,999.91
2016-06-29T05:27:31.765Z,999.9
2016-06-29T05:28:31.798Z,999.93
2016-06-29T05:29:31.820Z,999.95
2016-06-29T05:30:31.846Z,999.95
2016-06-29T05:31:31.881Z,999.91
2016-06-29T05:32:31.890Z,999.94
2016-06-29T05:33:31.919Z,999.93
2016-06-29T05:34:31.955Z,999.92
2016-06-29T05:35:31.972Z,999.91
2016-06-29T05:36:31.998Z,999.94
2016-06-29T05:37:32.018Z,999.91
2016-06-29T05:38:32.047Z,999.98
2016-06-29T05:39:32.084Z,999.99
2016-06-29T05:40:32.094Z,999.98
2016-06-29T05:41:32.123Z,999.94
2016-06-29T05:42:32.148Z,999.93
2016-06-29T05:43:32.170Z,999.96
2016-06-29T05:44:32.200Z,999.92
2016-06-29T05:45:32.223Z,999.93
2016-06-29T05:46:32.246Z,999.93
2016-06-29T05:47:32.271Z,999.92
2016-06-29T05:48:32.300Z,999.9
2016-06-29T05:49:32.321Z,999.97
2016-06-29T05:50:32.347Z,999.92
2016-06-29T05:51:32.373Z,999.95
2016-06-29T05:52:32.397Z,999.9
2016-06-29T05:53:32.422Z,999.92
2016-06-29T05:54:32.450Z,999.92
2016-06-29T05:55:32.476Z,999.95
2016-06-29T05:56:32.499Z,999.96
2016-06-29T05:57:32.527Z,999.93
2016-06-29T05:58:32.549Z,999.9
2016-06-29T05:59:32.586Z,999.94
2016-06-29T06:00:32.598Z,999.96
2016-06-29T06:01:32.638Z,999.95
2016-06-29T06:02:32.656Z,1000.01
2016-06-29T06:03:32.694Z,999.97
2016-06-29T06:04:32.707Z,999.97
2016-06-29T06:05:32.726Z,999.98
2016-06-29T06:06:32.760Z,1000.01
2016-06-29T06:07:32.782Z,1000.01
2016-06-29T06:08:32.807Z,999.99
2016-06-29T06:09:32.829Z,1000.03
2016-06-29T06:10:32.854Z,999.99
2016-06-29T06:11:32.878Z,1000.03
2016-06-29T06:12:32.907Z,999.99
2016-06-29T06:13:32.932Z,999.99
2016-06-29T06:14:32.959Z,999.98
2016-06-29T06:15:32.985Z,1000.01
2016-06-29T06:16:33.010Z,999.98
2016-06-29T06:17:33.035Z,999.99
2016-06-29T06:18:33.060Z,999.99
2016-06-29T06:19:33.084Z,1000.07
2016-06-29T06:20:33.106Z,1000.06
2016-06-29T06:21:33.138Z,1000.05
2016-06-29T06:22:33.162Z,1000.06
2016-06-29T06:23:33.184Z,1000.07
2016-06-29T06:24:33.214Z,1000.06
2016-06-29T06:25:33.236Z,1000.13
2016-06-29T06:26:33.262Z,1000.1
2016-06-29T06:27:33.293Z,1000.12
2016-06-29T06:28:33.315Z,1000.13
2016-06-29T06:29:33.343Z,1000.12
2016-06-29T06:30:33.367Z,1000.07
2016-06-29T06:31:33.394Z,1000.11
2016-06-29T06:32:33.429Z,1000.1
2016-06-29T06:33:33.442Z,1000.08
2016-06-29T06:34:33.470Z,1000.08
2016-06-29T06:35:33.494Z,1000.09
2016-06-29T06:36:33.518Z,1000.06
2016-06-29T06:37:33.549Z,1000.11
2016-06-29T06:38:33.566Z,1000.09
2016-06-29T06:39:33.597Z,1000.06
2016-06-29T06:40:33.638Z,1000.06
2016-06-29T06:41:33.651Z,1000.12
2016-06-29T06:42:33.674Z,1000.14
2016-06-29T06:43:33.698Z,1000.12
2016-06-29T06:44:33.726Z,1000.16
2016-06-29T06:45:33.747Z,1000.16
2016-06-29T06:46:33.780Z,1000.13
2016-06-29T06:47:33.798Z,1000.15
2016-06-29T06:48:33.825Z,1000.09
2016-06-29T06:49:33.850Z,1000.09
2016-06-29T06:50:33.875Z,1000.09
2016-06-29T06:51:33.907Z,1000.06
2016-06-29T06:52:33.930Z,1000.09
2016-06-29T06:53:33.952Z,1000.03
2016-06-29T06:54:33.982Z,1000.04
2016-06-29T06:55:34.005Z,1000.02
2016-06-29T06:56:34.029Z,1000.05
2016-06-29T06:57:34.059Z,1000.05
2016-06-29T06:58:34.079Z,1000.08
2016-06-29T06:59:34.113Z,1000.09
2016-06-29T07:00:34.137Z,1000.08
2016-06-29T07:01:34.178Z,1000.07
2016-06-29T07:02:34.189Z,1000.03
2016-06-29T07:03:34.211Z,1000.02
2016-06-29T07:04:34.522Z,1000.05
2016-06-29T07:05:34.262Z,1000.03
2016-06-29T07:06:34.297Z,1000.02
2016-06-29T07:07:34.315Z,1000
2016-06-29T07:08:34.341Z,1000.05
2016-06-29T07:09:34.371Z,1000
2016-06-29T07:10:34.391Z,1000
2016-06-29T07:11:34.415Z,1000.02
2016-06-29T07:12:34.441Z,1000.05
2016-06-29T07:13:34.470Z,1000.09
2016-06-29T07:14:34.496Z,1000.03
2016-06-29T07:15:34.521Z,1000.03
2016-06-29T07:16:34.548Z,1000.07
2016-06-29T07:17:34.570Z,1000.11
2016-06-29T07:18:34.603Z,1000.09
2016-06-29T07:19:34.637Z,1000.07
2016-06-29T07:20:34.651Z,1000.13
2016-06-29T07:21:34.675Z,1000.08
2016-06-29T07:22:34.702Z,1000.02
2016-06-29T07:23:34.730Z,1000.02
2016-06-29T07:24:34.756Z,1000.04
2016-06-29T07:25:34.785Z,1000.04
2016-06-29T07:26:34.817Z,1000.05
2016-06-29T07:27:34.841Z,1000.05
2016-06-29T07:28:34.871Z,1000.05
2016-06-29T07:29:34.906Z,1000.03
2016-06-29T07:30:34.907Z,1000.01
2016-06-29T07:31:34.939Z,1000.02
2016-06-29T07:32:34.975Z,999.96
2016-06-29T07:33:34.991Z,999.96
2016-06-29T07:34:35.014Z,1000
2016-06-29T07:35:35.045Z,999.96
2016-06-29T07:36:35.071Z,999.98
2016-06-29T07:37:35.098Z,1000.01
2016-06-29T07:38:35.123Z,999.96
2016-06-29T07:39:35.149Z,999.98
2016-06-29T07:40:35.171Z,999.94
2016-06-29T07:41:35.198Z,999.97
2016-06-29T07:42:35.245Z,999.92
2016-06-29T07:43:35.254Z,999.93
2016-06-29T07:44:35.278Z,999.9
2016-06-29T07:45:35.305Z,999.95
2016-06-29T07:46:35.332Z,999.92
2016-06-29T07:47:35.355Z,999.96
2016-06-29T07:48:35.379Z,999.97
2016-06-29T07:49:35.408Z,1000.01
2016-06-29T07:50:35.454Z,1000.02
2016-06-29T07:51:35.457Z,999.94
2016-06-29T07:52:35.553Z,999.93
2016-06-29T07:53:35.510Z,999.99
2016-06-29T07:54:35.544Z,999.95
2016-06-29T07:55:35.563Z,999.99
2016-06-29T07:56:35.598Z,1000.03
2016-06-29T07:57:35.621Z,999.97
2016-06-29T07:58:35.648Z,1000.02
2016-06-29T07:59:35.673Z,999.96
2016-06-29T08:00:35.701Z,1000
2016-06-29T08:01:35.793Z,999.97
2016-06-29T08:02:35.772Z,999.97
2016-06-29T08:03:35.777Z,1000.07
2016-06-29T08:04:35.806Z,1000.05
2016-06-29T08:05:35.834Z,1000.13
2016-06-29T08:06:35.855Z,1000.01
2016-06-29T08:07:35.887Z,1000.08
2016-06-29T08:08:35.915Z,1000.08
2016-06-29T08:09:35.934Z,1000.1
2016-06-29T08:10:35.964Z,1000.13
2016-06-29T08:11:35.997Z,1000.12
2016-06-29T08:12:36.021Z,1000.14
2016-06-29T08:13:36.041Z,1000.17
2016-06-29T08:14:36.069Z,1000.17
2016-06-29T08:15:36.095Z,1000.22
2016-06-29T08:16:36.125Z,1000.2
2016-06-29T08:17:36.146Z,1000.15
2016-06-29T08:18:36.177Z,1000.21
2016-06-29T08:19:36.203Z,1000.16
2016-06-29T08:20:36.231Z,1000.19
2016-06-29T08:21:36.258Z,1000.17
2016-06-29T08:22:36.285Z,1000.18
2016-06-29T08:23:36.317Z,1000.12
2016-06-29T08:24:36.342Z,1000.13
2016-06-29T08:25:36.374Z,1000.1
2016-06-29T08:26:36.390Z,1000.03
2016-06-29T08:27:36.427Z,1000.05
2016-06-29T08:28:36.443Z,1000.05
2016-06-29T08:29:36.478Z,999.99
2016-06-29T08:30:36.505Z,999.97
2016-06-29T08:31:36.530Z,999.96
2016-06-29T08:32:36.561Z,999.99
2016-06-29T08:33:36.586Z,999.93
2016-06-29T08:34:36.614Z,1000.1
2016-06-29T08:35:36.640Z,999.96
2016-06-29T08:36:36.671Z,1000.04
2016-06-29T08:37:36.703Z,1000.04
2016-06-29T08:38:36.722Z,1000.01
2016-06-29T08:39:36.752Z,1000.12
2016-06-29T08:40:36.779Z,1000.06
2016-06-29T08:41:36.811Z,1000.07
2016-06-29T08:42:36.831Z,1000.05
2016-06-29T08:43:36.859Z,1000.02
2016-06-29T08:44:36.884Z,1000.01
2016-06-29T08:45:36.915Z,1000.02
2016-06-29T08:46:36.943Z,1000.01
2016-06-29T08:47:36.969Z,999.96
2016-06-29T08:48:36.999Z,999.97
2016-06-29T08:49:37.026Z,999.98
2016-06-29T08:50:37.052Z,1000.03
2016-06-29T08:51:37.080Z,999.98
2016-06-29T08:52:37.103Z,999.97
2016-06-29T08:53:37.155Z,999.98
2016-06-29T08:54:37.161Z,999.96
2016-06-29T08:55:37.199Z,999.88
2016-06-29T08:56:37.230Z,999.99
2016-06-29T08:57:37.253Z,999.92
2016-06-29T08:58:37.274Z,999.98
2016-06-29T08:59:37.303Z,999.89
2016-06-29T09:00:37.334Z,999.93
2016-06-29T09:01:37.358Z,1000
2016-06-29T09:02:37.388Z,999.92
2016-06-29T09:03:37.414Z,999.88
2016-06-29T09:04:37.448Z,999.86
2016-06-29T09:05:37.472Z,999.88
2016-06-29T09:06:37.505Z,999.91
2016-06-29T09:07:37.532Z,999.95
2016-06-29T09:08:37.561Z,999.92
2016-06-29T09:09:37.587Z,999.96
2016-06-29T09:10:37.616Z,1000.03
2016-06-29T09:11:37.643Z,1000
2016-06-29T09:12:37.671Z,1000.01
2016-06-29T09:13:37.702Z,1000
2016-06-29T09:14:37.730Z,1000
2016-06-29T09:15:37.761Z,1000.02
2016-06-29T09:16:37.790Z,1000.08
2016-06-29T09:17:37.812Z,1000.14
2016-06-29T09:18:37.850Z,1000.14
2016-06-29T09:19:37.876Z,1000.16
2016-06-29T09:20:37.904Z,1000.21
2016-06-29T09:21:37.951Z,1000.17
2016-06-29T09:22:37.955Z,1000.15
2016-06-29T09:23:37.994Z,1000.13
2016-06-29T09:24:38.019Z,1000.23
2016-06-29T09:25:38.043Z,1000.23
2016-06-29T09:26:38.078Z,1000.22
2016-06-29T09:27:38.101Z,1000.17
2016-06-29T09:28:38.126Z,1000.2
2016-06-29T09:29:38.167Z,1000.29
2016-06-29T09:30:38.198Z,1000.14
2016-06-29T09:31:38.224Z,1000.25
2016-06-29T09:32:38.244Z,1000.23
2016-06-29T09:33:38.282Z,1000.2
2016-06-29T09:34:38.300Z,1000.15
2016-06-29T09:35:38.333Z,1000.14
2016-06-29T09:36:38.367Z,1000.05
2016-06-29T09:37:38.394Z,1000.09
2016-06-29T09:38:38.431Z,1000.08
2016-06-29T09:39:38.449Z,1000.12
2016-06-29T09:40:38.481Z,1000.16
2016-06-29T09:41:38.509Z,1000.17
2016-06-29T09:42:38.541Z,1000.22
2016-06-29T09:43:38.578Z,1000.17
2016-06-29T09:44:38.606Z,1000.16
2016-06-29T09:45:38.630Z,1000.14
2016-06-29T09:46:38.658Z,1000.1
2016-06-29T09:47:38.693Z,1000.12
2016-06-29T09:48:38.724Z,1000.13
2016-06-29T09:49:38.749Z,1000.14
2016-06-29T09:50:38.778Z,1000.17
2016-06-29T09:51:38.812Z,1000.21
2016-06-29T09:52:38.832Z,1000.21
2016-06-29T09:53:38.872Z,1000.17
2016-06-29T09:54:38.895Z,1000.11
2016-06-29T09:55:38.926Z,1000.15
2016-06-29T09:56:38.961Z,1000.08
2016-06-29T09:57:38.985Z,1000.15
2016-06-29T09:58:39.018Z,1000.1
2016-06-29T09:59:39.044Z,1000.1
2016-06-29T10:00:39.076Z,1000.14
2016-06-29T10:01:39.102Z,1000.1
2016-06-29T10:02:39.134Z,1000.14
2016-06-29T10:03:39.161Z,1000.14
2016-06-29T10:04:39.193Z,1000.12
2016-06-29T10:05:39.225Z,1000.12
2016-06-29T10:06:39.254Z,1000.06
2016-06-29T10:07:39.281Z,1000
2016-06-29T10:08:39.313Z,1000.06
2016-06-29T10:09:39.350Z,1000.1
2016-06-29T10:10:39.377Z,1000.1
2016-06-29T10:11:39.409Z,1000.13
2016-06-29T10:12:39.433Z,1000.11
2016-06-29T10:13:39.475Z,1000.13
2016-06-29T10:14:39.499Z,1000.15
2016-06-29T10:15:39.527Z,1000.16
2016-06-29T10:16:39.563Z,1000.2
2016-06-29T10:17:39.595Z,1000.24
2016-06-29T10:18:39.626Z,1000.21
2016-06-29T10:19:39.652Z,1000.29
2016-06-29T10:20:39.682Z,1000.26
2016-06-29T10:21:39.718Z,1000.28
2016-06-29T10:22:39.753Z,1000.26
2016-06-29T10:23:39.779Z,1000.21
2016-06-29T10:24:39.804Z,1000.16
2016-06-29T10:25:39.837Z,1000.16
2016-06-29T10:26:39.863Z,1000.2
2016-06-29T10:27:39.901Z,1000.25
2016-06-29T10:28:39.928Z,1000.21
2016-06-29T10:29:39.957Z,1000.22
2016-06-29T10:30:39.991Z,1000.22
2016-06-29T10:31:40.030Z,1000.23
2016-06-29T10:32:40.054Z,1000.32
2016-06-29T10:33:40.084Z,1000.29
2016-06-29T10:34:40.141Z,1000.27
2016-06-29T10:35:40.149Z,1000.31
2016-06-29T10:36:40.181Z,1000.28
2016-06-29T10:37:40.215Z,1000.23
2016-06-29T10:38:40.250Z,1000.21
2016-06-29T10:39:40.276Z,1000.16
2016-06-29T10:40:40.302Z,1000.1
2016-06-29T10:41:40.333Z,1000.24
2016-06-29T10:42:40.365Z,1000.16
2016-06-29T10:43:40.427Z,1000.16
2016-06-29T10:44:40.438Z,1000.12
2016-06-29T10:45:40.463Z,1000.14
2016-06-29T10:46:40.499Z,1000.21
2016-06-29T10:47:40.527Z,1000.22
2016-06-29T10:48:40.564Z,1000.12
2016-06-29T10:49:40.594Z,1000.08
2016-06-29T10:50:40.621Z,1000.11
2016-06-29T10:51:40.661Z,1000.13
2016-06-29T10:52:40.686Z,1000.16
2016-06-29T10:53:40.721Z,1000.09
2016-06-29T10:54:40.748Z,1000.03
2016-06-29T10:55:40.778Z,1000.03
2016-06-29T10:56:40.818Z,999.93
2016-06-29T10:57:40.852Z,1000.01
2016-06-29T10:58:40.879Z,999.99
2016-06-29T10:59:40.911Z,1000.01
2016-06-29T11:00:40.946Z,1000.04
2016-06-29T11:01:40.974Z,1000.01
2016-06-29T11:02:41.006Z,1000.04
2016-06-29T11:03:41.041Z,1000.09
2016-06-29T11:04:41.082Z,1000.01
2016-06-29T11:05:41.108Z,1000.11
2016-06-29T11:06:41.134Z,1000.08
2016-06-29T11:07:41.171Z,1000.08
2016-06-29T11:08:41.204Z,1000.04
2016-06-29T11:09:41.233Z,1000.2
2016-06-29T11:10:41.269Z,1000.15
2016-06-29T11:11:41.302Z,1000.06
2016-06-29T11:12:41.328Z,1000.07
2016-06-29T11:13:41.366Z,1000.04
2016-06-29T11:14:41.421Z,1000
2016-06-29T11:15:41.433Z,1000.02
2016-06-29T11:16:41.543Z,1000.04
2016-06-29T11:17:41.491Z,999.97
2016-06-29T11:18:41.528Z,1000.03
2016-06-29T11:19:41.563Z,999.97
2016-06-29T11:20:41.594Z,1000.05
2016-06-29T11:21:41.628Z,1000.01
2016-06-29T11:22:41.660Z,1000.11
2016-06-29T11:23:41.695Z,1000.05
2016-06-29T11:24:41.732Z,1000.13
2016-06-29T11:25:41.770Z,1000.03
2016-06-29T11:26:41.798Z,1000.07
2016-06-29T11:27:41.837Z,1000.05
2016-06-29T11:28:41.864Z,1000.05
2016-06-29T11:29:41.891Z,1000.1
2016-06-29T11:30:41.923Z,1000.12
2016-06-29T11:31:41.967Z,1000.13
2016-06-29T11:32:41.996Z,1000.08
2016-06-29T11:33:42.026Z,1000.06
2016-06-29T11:34:42.056Z,1000.09
2016-06-29T11:35:42.093Z,1000.06
2016-06-29T11:36:42.130Z,1000.07
2016-06-29T11:37:42.164Z,1000.14
2016-06-29T11:38:42.196Z,1000.15
2016-06-29T11:39:42.231Z,1000.12
2016-06-29T11:40:42.274Z,1000.02
2016-06-29T11:41:42.304Z,1000.02
2016-06-29T11:42:42.335Z,1000.07
2016-06-29T11:43:42.360Z,1000.01
2016-06-29T11:44:42.434Z,1000.05
2016-06-29T11:45:42.440Z,999.94
2016-06-29T11:46:42.464Z,1000.02
2016-06-29T11:47:42.498Z,999.97
2016-06-29T11:48:42.537Z,999.91
2016-06-29T11:49:42.566Z,999.94
2016-06-29T11:50:42.608Z,999.91
2016-06-29T11:51:42.635Z,999.92
2016-06-29T11:52:42.675Z,999.94
2016-06-29T11:53:42.699Z,999.95
2016-06-29T11:54:42.748Z,999.98
2016-06-29T11:55:42.775Z,999.97
2016-06-29T11:56:42.809Z,999.92
2016-06-29T11:57:42.841Z,999.91
2016-06-29T11:58:42.875Z,999.94
2016-06-29T11:59:42.907Z,999.97
2016-06-29T12:00:42.947Z,999.92
2016-06-29T12:01:42.975Z,999.97
2016-06-29T12:02:43.029Z,999.87
2016-06-29T12:03:43.043Z,999.95
2016-06-29T12:04:43.082Z,1000.09
2016-06-29T12:05:43.112Z,1000.05
2016-06-29T12:06:43.152Z,999.97
2016-06-29T12:07:43.184Z,1000.09
2016-06-29T12:08:43.218Z,1000.12
2016-06-29T12:09:43.252Z,1000.02
2016-06-29T12:10:43.290Z,1000.05
2016-06-29T12:11:43.322Z,1000.07
2016-06-29T12:12:43.364Z,1000.11
2016-06-29T12:13:43.401Z,1000.18
2016-06-29T12:14:43.425Z,1000.09
2016-06-29T12:15:43.461Z,1000.1